Time;durP1;ratioP1;P1;durP2;ratioP2;P2;SDS_P1;SDS_P2;PMS_P1;PMS_P2;Temp;Humidity;BMP_temperature;BMP_pressure;BME280_temperature;BME280_humidity;BME280_pressure;Samples;Min_cycle;Max_cycle;Signal;HPM_P1;HPM_P2
2022/03/03 00:00:09;;;;;;;;;95.20;79.40;;;;;;;;4997989;28;8761;-70
2022/03/03 00:02:36;;;;;;;;;86.40;78.60;;;;;;;;4996359;28;8789;-70
2022/03/03 00:05:03;;;;;;;;;103.80;89.40;;;;;;;;4996676;28;8789;-70
2022/03/03 00:07:30;;;;;;;;;92.60;83.00;;;;;;;;4997914;28;8750;-70
2022/03/03 00:09:57;;;;;;;;;97.00;84.20;;;;;;;;4997230;28;8741;-71
2022/03/03 00:12:24;;;;;;;;;108.00;92.40;;;;;;;;5013448;28;9388;-70
2022/03/03 00:14:50;;;;;;;;;89.60;78.80;;;;;;;;5017514;28;8765;-71
2022/03/03 00:17:17;;;;;;;;;103.40;92.20;;;;;;;;5017324;28;8824;-70
2022/03/03 00:19:44;;;;;;;;;111.80;102.00;;;;;;;;5017592;28;8743;-71
2022/03/03 00:22:11;;;;;;;;;126.00;112.80;;;;;;;;5032384;28;8763;-70
2022/03/03 00:24:38;;;;;;;;;123.80;108.00;;;;;;;;5016821;28;8774;-70
2022/03/03 00:27:05;;;;;;;;;125.20;109.60;;;;;;;;5014947;28;8808;-71
2022/03/03 00:29:32;;;;;;;;;115.40;107.80;;;;;;;;5017035;28;8759;-70
2022/03/03 00:31:59;;;;;;;;;122.00;108.40;;;;;;;;5018002;28;8767;-71
2022/03/03 00:34:26;;;;;;;;;120.60;112.40;;;;;;;;5016731;28;8894;-70
2022/03/03 00:36:55;;;;;;;;;120.20;103.80;;;;;;;;5018692;28;8821;-71
2022/03/03 00:39:22;;;;;;;;;113.00;103.00;;;;;;;;5032089;28;8747;-71
2022/03/03 00:41:49;;;;;;;;;106.20;96.60;;;;;;;;5017769;28;8770;-71
2022/03/03 00:44:16;;;;;;;;;98.20;88.20;;;;;;;;5017169;28;9005;-71
2022/03/03 00:46:45;;;;;;;;;103.80;92.80;;;;;;;;5016391;28;8838;-70
2022/03/03 00:49:11;;;;;;;;;105.20;99.00;;;;;;;;5015137;28;8818;-70
2022/03/03 00:51:38;;;;;;;;;109.40;97.00;;;;;;;;5014874;28;8909;-71
2022/03/03 00:54:05;;;;;;;;;93.00;90.00;;;;;;;;5014411;28;8830;-70
2022/03/03 00:56:33;;;;;;;;;94.80;82.80;;;;;;;;5015943;28;8781;-70
2022/03/03 00:58:59;;;;;;;;;105.80;93.20;;;;;;;;5016353;28;8786;-70
2022/03/03 01:01:26;;;;;;;;;94.40;87.80;;;;;;;;5014138;28;8782;-70
2022/03/03 01:03:53;;;;;;;;;96.20;89.00;;;;;;;;5016843;28;8763;-70
2022/03/03 01:06:20;;;;;;;;;101.60;90.20;;;;;;;;5015610;28;8852;-69
2022/03/03 01:08:49;;;;;;;;;98.80;92.60;;;;;;;;5017621;28;8767;-70
2022/03/03 01:11:16;;;;;;;;;92.20;83.20;;;;;;;;5016784;28;8793;-70
2022/03/03 01:13:43;;;;;;;;;105.20;93.00;;;;;;;;5015214;28;8786;-70
2022/03/03 01:16:10;;;;;;;;;94.60;83.00;;;;;;;;5016985;28;8770;-71
2022/03/03 01:18:36;;;;;;;;;100.00;92.40;;;;;;;;5014544;28;8778;-71
2022/03/03 01:21:03;;;;;;;;;110.80;97.40;;;;;;;;5016608;28;9464;-70
2022/03/03 01:23:30;;;;;;;;;102.40;100.40;;;;;;;;5016067;28;8790;-71
2022/03/03 01:25:57;;;;;;;;;99.00;85.40;;;;;;;;5025346;28;8793;-70
2022/03/03 01:28:23;;;;;;;;;89.40;82.60;;;;;;;;4996495;28;8765;-70
2022/03/03 01:30:51;;;;;;;;;91.20;77.80;;;;;;;;4996742;28;8776;-70
2022/03/03 01:33:17;;;;;;;;;86.00;83.80;;;;;;;;4995037;28;8812;-69
2022/03/03 01:35:44;;;;;;;;;97.40;84.00;;;;;;;;4994964;28;8798;-70
2022/03/03 01:38:11;;;;;;;;;102.40;88.00;;;;;;;;4997466;28;8761;-70
2022/03/03 01:40:38;;;;;;;;;96.80;87.80;;;;;;;;4985212;28;8775;-70
2022/03/03 01:43:04;;;;;;;;;97.80;85.40;;;;;;;;5019189;28;8787;-70
2022/03/03 01:45:31;;;;;;;;;95.40;81.20;;;;;;;;5017960;28;8908;-69
2022/03/03 01:47:58;;;;;;;;;100.40;83.80;;;;;;;;5033748;28;9506;-70
2022/03/03 01:50:25;;;;;;;;;92.60;85.00;;;;;;;;5018024;28;8782;-70
2022/03/03 01:52:51;;;;;;;;;98.00;84.60;;;;;;;;5019311;28;8798;-70
2022/03/03 01:55:18;;;;;;;;;91.00;79.20;;;;;;;;5034654;28;8743;-70
2022/03/03 01:57:47;;;;;;;;;89.60;80.60;;;;;;;;5034492;28;8908;-70
2022/03/03 02:00:14;;;;;;;;;96.40;85.40;;;;;;;;5018888;28;8740;-70
2022/03/03 02:02:41;;;;;;;;;86.20;79.20;;;;;;;;5018973;28;8770;-69
2022/03/03 02:05:07;;;;;;;;;83.40;81.40;;;;;;;;5018939;28;8810;-69
2022/03/03 02:07:35;;;;;;;;;98.60;83.00;;;;;;;;5018312;28;8877;-69
2022/03/03 02:10:02;;;;;;;;;94.00;84.20;;;;;;;;5019612;28;8846;-69
2022/03/03 02:12:29;;;;;;;;;89.80;81.60;;;;;;;;5033361;28;8877;-69
2022/03/03 02:14:55;;;;;;;;;81.40;71.80;;;;;;;;5018240;28;8787;-69
2022/03/03 02:17:22;;;;;;;;;98.80;90.80;;;;;;;;5018946;28;8873;-70
2022/03/03 02:19:49;;;;;;;;;96.00;84.40;;;;;;;;5017070;28;8885;-69
2022/03/03 02:22:15;;;;;;;;;91.40;86.00;;;;;;;;5018756;28;8778;-69
2022/03/03 02:24:43;;;;;;;;;98.20;90.20;;;;;;;;5018352;28;8739;-69
2022/03/03 02:27:10;;;;;;;;;93.80;81.80;;;;;;;;5018242;28;8735;-69
2022/03/03 02:29:37;;;;;;;;;92.40;82.60;;;;;;;;5017372;28;8774;-70
2022/03/03 02:32:04;;;;;;;;;111.00;98.00;;;;;;;;5018287;28;8735;-69
2022/03/03 02:34:31;;;;;;;;;106.80;98.40;;;;;;;;5016903;28;8929;-69
2022/03/03 02:36:58;;;;;;;;;113.60;97.80;;;;;;;;5018578;28;8765;-69
2022/03/03 02:39:25;;;;;;;;;103.00;92.20;;;;;;;;5017027;28;8809;-69
2022/03/03 02:41:51;;;;;;;;;106.20;91.40;;;;;;;;5018175;28;8870;-70
2022/03/03 02:44:18;;;;;;;;;108.40;98.40;;;;;;;;5017496;28;8802;-69
2022/03/03 02:46:45;;;;;;;;;108.40;98.60;;;;;;;;5016730;28;8841;-79
2022/03/03 02:49:11;;;;;;;;;94.00;86.80;;;;;;;;5015815;28;8798;-74
2022/03/03 02:51:38;;;;;;;;;105.40;93.80;;;;;;;;5017076;28;8795;-76
2022/03/03 02:54:05;;;;;;;;;111.40;100.60;;;;;;;;5017805;28;8802;-77
2022/03/03 02:56:32;;;;;;;;;105.60;94.20;;;;;;;;5023184;28;8796;-75
2022/03/03 02:58:58;;;;;;;;;108.40;98.80;;;;;;;;4997736;28;8819;-76
2022/03/03 03:01:28;;;;;;;;;90.40;86.40;;;;;;;;4997997;28;8813;-75
2022/03/03 03:03:54;;;;;;;;;104.60;94.40;;;;;;;;4997755;28;8794;-79
2022/03/03 03:06:21;;;;;;;;;101.60;96.60;;;;;;;;4996318;28;8817;-78
2022/03/03 03:08:48;;;;;;;;;109.60;93.00;;;;;;;;4998279;28;8801;-77
2022/03/03 03:11:15;;;;;;;;;102.20;93.60;;;;;;;;5004245;28;8820;-76
2022/03/03 03:13:41;;;;;;;;;107.20;95.80;;;;;;;;5016994;28;8754;-76
2022/03/03 03:16:08;;;;;;;;;108.40;98.40;;;;;;;;5016985;28;8782;-69
2022/03/03 03:18:35;;;;;;;;;114.80;100.20;;;;;;;;5032276;28;8865;-68
2022/03/03 03:21:02;;;;;;;;;108.80;99.00;;;;;;;;5032711;28;8803;-68
2022/03/03 03:23:28;;;;;;;;;106.60;92.80;;;;;;;;5016030;28;8811;-66
2022/03/03 03:25:55;;;;;;;;;100.00;92.00;;;;;;;;5026709;28;8900;-68
2022/03/03 03:28:23;;;;;;;;;101.80;92.80;;;;;;;;4996854;28;8778;-68
2022/03/03 03:30:51;;;;;;;;;109.40;98.40;;;;;;;;4996590;28;8762;-67
2022/03/03 03:33:18;;;;;;;;;95.40;84.20;;;;;;;;4996639;28;8750;-69
2022/03/03 03:35:44;;;;;;;;;98.20;90.20;;;;;;;;4980558;28;8790;-70
2022/03/03 03:38:11;;;;;;;;;101.00;93.00;;;;;;;;4996372;28;8808;-68
2022/03/03 03:40:38;;;;;;;;;100.20;89.20;;;;;;;;4982894;28;8771;-71
2022/03/03 03:43:05;;;;;;;;;105.00;90.40;;;;;;;;5033348;28;9335;-70
2022/03/03 03:45:33;;;;;;;;;101.60;91.20;;;;;;;;5032509;28;8833;-69
2022/03/03 03:48:00;;;;;;;;;103.00;92.80;;;;;;;;5017337;28;8901;-67
2022/03/03 03:50:28;;;;;;;;;103.80;98.40;;;;;;;;5015819;28;8782;-67
2022/03/03 03:52:55;;;;;;;;;109.80;96.20;;;;;;;;5016086;28;8798;-69
2022/03/03 03:55:23;;;;;;;;;102.20;93.60;;;;;;;;5032228;28;8781;-69
2022/03/03 03:57:49;;;;;;;;;103.00;92.00;;;;;;;;5031788;28;8747;-70
2022/03/03 04:00:16;;;;;;;;;94.20;87.20;;;;;;;;5017117;28;8790;-68
2022/03/03 04:02:43;;;;;;;;;89.60;81.60;;;;;;;;5030536;28;8853;-69
2022/03/03 04:05:10;;;;;;;;;90.40;81.80;;;;;;;;5014455;28;8922;-69
2022/03/03 04:07:37;;;;;;;;;87.20;78.40;;;;;;;;5028503;28;8771;-68
2022/03/03 04:10:04;;;;;;;;;87.20;78.20;;;;;;;;5013228;28;8759;-67
2022/03/03 04:12:31;;;;;;;;;82.60;73.40;;;;;;;;5013653;28;8775;-67
2022/03/03 04:14:58;;;;;;;;;87.80;77.20;;;;;;;;5012498;28;8755;-67
2022/03/03 04:17:24;;;;;;;;;89.80;82.00;;;;;;;;5013929;28;8809;-67
2022/03/03 04:19:51;;;;;;;;;90.80;81.20;;;;;;;;5014526;28;8841;-67
2022/03/03 04:22:19;;;;;;;;;86.80;84.80;;;;;;;;5016423;28;8838;-68
2022/03/03 04:24:45;;;;;;;;;79.00;74.60;;;;;;;;5016605;28;8857;-68
2022/03/03 04:27:12;;;;;;;;;86.00;78.80;;;;;;;;5015033;28;8747;-68
2022/03/03 04:29:39;;;;;;;;;79.60;69.80;;;;;;;;5016376;28;8877;-69
2022/03/03 04:32:06;;;;;;;;;80.80;69.80;;;;;;;;5031242;28;8755;-68
2022/03/03 04:34:32;;;;;;;;;76.80;65.60;;;;;;;;5013023;28;8715;-69
2022/03/03 04:36:59;;;;;;;;;81.60;71.80;;;;;;;;5015733;28;8815;-69
2022/03/03 04:39:26;;;;;;;;;81.00;73.00;;;;;;;;5030905;28;8791;-69
2022/03/03 04:41:55;;;;;;;;;67.20;56.20;;;;;;;;5016118;28;8807;-69
2022/03/03 04:44:22;;;;;;;;;75.00;66.20;;;;;;;;5031480;28;8860;-69
2022/03/03 04:46:49;;;;;;;;;82.00;72.40;;;;;;;;5030213;28;8918;-69
2022/03/03 04:49:16;;;;;;;;;77.40;73.40;;;;;;;;5032546;28;8803;-70
2022/03/03 04:51:42;;;;;;;;;80.40;73.00;;;;;;;;5014702;28;8956;-69
2022/03/03 04:54:09;;;;;;;;;81.60;75.60;;;;;;;;5016796;28;9021;-69
2022/03/03 04:56:36;;;;;;;;;80.20;74.80;;;;;;;;5020627;28;8796;-69
2022/03/03 04:59:03;;;;;;;;;80.80;73.40;;;;;;;;4995176;28;9446;-69
2022/03/03 05:01:30;;;;;;;;;79.80;71.40;;;;;;;;4997381;28;8757;-69
2022/03/03 05:03:56;;;;;;;;;77.60;69.80;;;;;;;;4979900;28;8809;-69
2022/03/03 05:06:23;;;;;;;;;78.00;69.00;;;;;;;;4994997;28;8805;-69
2022/03/03 05:08:50;;;;;;;;;73.20;64.20;;;;;;;;4995214;28;8797;-69
2022/03/03 05:11:17;;;;;;;;;77.20;69.20;;;;;;;;5004291;28;8782;-69
2022/03/03 05:13:43;;;;;;;;;75.20;62.00;;;;;;;;5017532;28;8747;-69
2022/03/03 05:16:10;;;;;;;;;75.60;65.60;;;;;;;;5020828;28;8869;-69
2022/03/03 05:18:38;;;;;;;;;70.40;59.20;;;;;;;;5019537;28;8933;-69
2022/03/03 05:21:05;;;;;;;;;73.40;62.80;;;;;;;;5018713;28;9412;-68
2022/03/03 05:23:31;;;;;;;;;72.80;61.60;;;;;;;;5035319;28;8779;-67
2022/03/03 05:25:58;;;;;;;;;72.40;60.60;;;;;;;;5019665;28;8801;-68
2022/03/03 05:28:26;;;;;;;;;71.00;57.00;;;;;;;;5035033;28;8771;-71
2022/03/03 05:30:53;;;;;;;;;71.40;59.80;;;;;;;;5035565;28;8747;-70
2022/03/03 05:33:20;;;;;;;;;71.00;55.60;;;;;;;;5020088;28;8739;-69
2022/03/03 05:35:47;;;;;;;;;71.80;61.80;;;;;;;;5017199;28;8779;-69
2022/03/03 05:38:14;;;;;;;;;69.60;57.40;;;;;;;;5034806;28;8774;-70
2022/03/03 05:40:41;;;;;;;;;72.00;58.00;;;;;;;;5020093;28;8739;-72
2022/03/03 05:43:11;;;;;;;;;76.20;67.40;;;;;;;;5020342;28;8802;-72
2022/03/03 05:45:38;;;;;;;;;75.00;62.20;;;;;;;;5034780;28;8873;-72
2022/03/03 05:48:05;;;;;;;;;66.20;53.00;;;;;;;;5018645;28;9362;-67
2022/03/03 05:50:32;;;;;;;;;68.40;57.40;;;;;;;;5034644;28;8791;-67
2022/03/03 05:52:59;;;;;;;;;73.40;60.60;;;;;;;;5018560;28;8781;-68
2022/03/03 05:55:26;;;;;;;;;68.40;54.40;;;;;;;;5019577;28;8739;-66
2022/03/03 05:57:54;;;;;;;;;70.20;58.40;;;;;;;;5019528;28;8751;-69
2022/03/03 06:00:21;;;;;;;;;72.40;59.40;;;;;;;;5034728;28;8766;-63
2022/03/03 06:02:51;;;;;;;;;69.00;54.00;;;;;;;;5018666;28;8789;-65
2022/03/03 06:05:19;;;;;;;;;69.00;55.40;;;;;;;;5034151;28;8803;-63
2022/03/03 06:07:46;;;;;;;;;70.20;56.00;;;;;;;;5019108;28;8763;-63
2022/03/03 06:10:13;;;;;;;;;66.20;54.40;;;;;;;;5019220;28;8846;-69
2022/03/03 06:12:51;;;;;;;;;73.40;62.40;;;;;;;;5032176;28;8743;-70
2022/03/03 06:15:18;;;;;;;;;69.60;61.20;;;;;;;;5033838;28;8766;-67
2022/03/03 06:17:45;;;;;;;;;69.20;55.60;;;;;;;;5019472;28;8806;-69
2022/03/03 06:20:13;;;;;;;;;68.80;58.00;;;;;;;;5019092;28;8787;-69
2022/03/03 06:22:40;;;;;;;;;66.20;53.00;;;;;;;;5032809;28;8920;-68
2022/03/03 06:25:07;;;;;;;;;65.80;52.00;;;;;;;;5032864;28;8794;-69
2022/03/03 06:27:34;;;;;;;;;67.00;50.60;;;;;;;;5014630;28;9029;-69
2022/03/03 06:30:00;;;;;;;;;64.40;49.60;;;;;;;;4999102;28;8769;-69
2022/03/03 06:32:27;;;;;;;;;70.60;57.40;;;;;;;;4996745;28;8780;-69
2022/03/03 06:34:54;;;;;;;;;67.40;55.20;;;;;;;;4998821;28;8742;-68
2022/03/03 06:37:20;;;;;;;;;63.40;51.80;;;;;;;;4999078;28;8733;-69
2022/03/03 06:39:47;;;;;;;;;66.40;53.20;;;;;;;;4998306;28;8851;-68
2022/03/03 06:42:14;;;;;;;;;55.20;44.80;;;;;;;;5014412;28;8739;-69
2022/03/03 06:44:41;;;;;;;;;64.40;51.40;;;;;;;;5018150;28;8779;-68
2022/03/03 06:47:07;;;;;;;;;63.80;49.60;;;;;;;;5017964;28;8791;-68
2022/03/03 06:49:34;;;;;;;;;63.80;51.40;;;;;;;;5016555;28;8767;-69
2022/03/03 06:52:02;;;;;;;;;61.60;48.80;;;;;;;;5018312;28;8845;-70
2022/03/03 06:54:29;;;;;;;;;59.20;46.80;;;;;;;;5032613;28;8779;-67
2022/03/03 06:56:56;;;;;;;;;64.80;50.60;;;;;;;;5019886;28;8835;-69
2022/03/03 06:59:27;;;;;;;;;58.00;48.00;;;;;;;;4996480;28;8892;-66
2022/03/03 07:01:55;;;;;;;;;55.80;44.80;;;;;;;;4998788;28;8887;-70
2022/03/03 07:04:21;;;;;;;;;62.60;48.60;;;;;;;;4998882;28;8903;-68
2022/03/03 07:06:49;;;;;;;;;62.40;49.40;;;;;;;;4997358;28;8825;-68
2022/03/03 07:09:16;;;;;;;;;59.20;47.20;;;;;;;;4998861;28;8887;-68
2022/03/03 07:11:43;;;;;;;;;67.60;52.60;;;;;;;;5008627;28;8786;-69
2022/03/03 07:14:10;;;;;;;;;63.00;49.00;;;;;;;;5016883;28;9427;-68
2022/03/03 07:16:42;;;;;;;;;64.20;51.60;;;;;;;;5018140;28;9490;-68
2022/03/03 07:19:13;;;;;;;;;60.40;47.40;;;;;;;;5017711;28;8809;-68
2022/03/03 07:21:40;;;;;;;;;60.60;47.40;;;;;;;;5018489;28;8759;-69
2022/03/03 07:24:30;;;;;;;;;62.40;50.00;;;;;;;;5018233;28;8751;-70
2022/03/03 07:27:08;;;;;;;;;62.20;49.60;;;;;;;;5014318;28;8782;-71
2022/03/03 07:29:36;;;;;;;;;59.60;47.20;;;;;;;;5017186;28;8914;-69
2022/03/03 07:32:07;;;;;;;;;58.40;46.00;;;;;;;;5014942;28;8786;-70
2022/03/03 07:34:34;;;;;;;;;60.00;46.40;;;;;;;;5016249;28;8748;-72
2022/03/03 07:37:05;;;;;;;;;50.20;42.20;;;;;;;;5033146;28;8773;-68
2022/03/03 07:39:42;;;;;;;;;57.40;45.80;;;;;;;;5032440;28;8791;-72
2022/03/03 07:42:17;;;;;;;;;60.00;49.20;;;;;;;;5033148;28;8806;-71
2022/03/03 07:44:44;;;;;;;;;58.80;44.20;;;;;;;;5017614;28;9381;-73
2022/03/03 07:47:11;;;;;;;;;57.80;46.80;;;;;;;;5016085;28;8856;-71
2022/03/03 07:49:40;;;;;;;;;54.20;43.80;;;;;;;;5017384;28;8767;-70
2022/03/03 07:52:07;;;;;;;;;56.00;45.20;;;;;;;;5014751;28;8752;-70
2022/03/03 07:54:34;;;;;;;;;57.40;46.80;;;;;;;;5032329;28;8798;-70
2022/03/03 07:57:01;;;;;;;;;53.80;45.20;;;;;;;;5018815;28;8880;-71
2022/03/03 07:59:29;;;;;;;;;57.00;44.60;;;;;;;;4996144;28;8773;-72
2022/03/03 08:01:57;;;;;;;;;58.80;46.00;;;;;;;;4996772;28;8797;-72
2022/03/03 08:04:31;;;;;;;;;60.80;49.20;;;;;;;;4996928;28;8828;-70
2022/03/03 08:07:04;;;;;;;;;53.80;43.80;;;;;;;;4980676;28;8784;-71
2022/03/03 08:09:32;;;;;;;;;54.60;44.80;;;;;;;;4998033;28;8781;-71
2022/03/03 08:11:59;;;;;;;;;58.75;48.00;;;;;;;;5011453;28;8743;-71
2022/03/03 08:14:26;;;;;;;;;57.40;46.00;;;;;;;;5016961;28;8771;-73
2022/03/03 08:16:53;;;;;;;;;60.20;47.00;;;;;;;;5032134;28;8865;-70
2022/03/03 08:19:19;;;;;;;;;56.40;45.20;;;;;;;;5017654;28;8832;-72
2022/03/03 08:21:46;;;;;;;;;60.80;48.00;;;;;;;;5031916;28;8777;-72
2022/03/03 08:24:13;;;;;;;;;53.40;42.60;;;;;;;;5031739;28;8798;-71
2022/03/03 08:26:41;;;;;;;;;57.00;46.40;;;;;;;;5016534;28;8795;-70
2022/03/03 08:29:08;;;;;;;;;57.60;47.20;;;;;;;;5016490;28;8837;-72
2022/03/03 08:31:36;;;;;;;;;57.00;45.40;;;;;;;;5014916;28;8786;-74
2022/03/03 08:34:10;;;;;;;;;59.80;46.40;;;;;;;;5015524;28;8833;-70
2022/03/03 08:36:44;;;;;;;;;59.20;47.80;;;;;;;;5023112;28;8758;-70
2022/03/03 08:39:11;;;;;;;;;56.80;44.20;;;;;;;;5016878;28;8774;-69
2022/03/03 08:41:38;;;;;;;;;58.20;46.20;;;;;;;;5031885;28;9440;-71
2022/03/03 08:44:05;;;;;;;;;60.40;48.20;;;;;;;;5032675;28;8798;-72
2022/03/03 08:46:33;;;;;;;;;57.20;45.80;;;;;;;;5031566;28;8763;-72
2022/03/03 08:49:01;;;;;;;;;58.60;46.40;;;;;;;;5016802;28;8809;-69
2022/03/03 08:51:28;;;;;;;;;59.00;47.00;;;;;;;;5031939;28;8751;-70
2022/03/03 08:53:54;;;;;;;;;59.00;47.40;;;;;;;;5017070;28;8777;-71
2022/03/03 08:56:23;;;;;;;;;59.60;48.00;;;;;;;;5015430;28;8759;-68
2022/03/03 08:58:51;;;;;;;;;59.80;48.00;;;;;;;;5016595;28;8751;-70
2022/03/03 09:01:18;;;;;;;;;59.80;47.60;;;;;;;;5017407;28;8735;-68
2022/03/03 09:03:45;;;;;;;;;57.80;46.00;;;;;;;;5016951;28;8766;-68
2022/03/03 09:06:15;;;;;;;;;61.60;47.60;;;;;;;;5015058;28;8782;-68
2022/03/03 09:08:42;;;;;;;;;51.00;42.25;;;;;;;;5031874;28;8759;-66
2022/03/03 09:11:08;;;;;;;;;56.40;43.80;;;;;;;;5016632;28;8878;-68
2022/03/03 09:13:35;;;;;;;;;55.80;43.40;;;;;;;;5016702;28;8909;-68
2022/03/03 09:16:02;;;;;;;;;59.00;43.20;;;;;;;;5017344;28;9400;-65
2022/03/03 09:18:29;;;;;;;;;55.40;45.00;;;;;;;;5016468;28;8755;-68
2022/03/03 09:20:55;;;;;;;;;59.00;46.20;;;;;;;;5016909;28;8747;-67
2022/03/03 09:23:22;;;;;;;;;58.40;46.40;;;;;;;;5016672;28;8747;-65
2022/03/03 09:25:49;;;;;;;;;57.40;47.80;;;;;;;;5016485;28;8759;-66
2022/03/03 09:28:15;;;;;;;;;54.80;44.40;;;;;;;;5017396;28;8747;-67
2022/03/03 09:30:42;;;;;;;;;60.80;48.00;;;;;;;;5016342;28;8773;-67
2022/03/03 09:33:09;;;;;;;;;59.00;46.40;;;;;;;;5016844;28;8755;-65
2022/03/03 09:35:36;;;;;;;;;56.60;46.00;;;;;;;;5015113;28;8782;-67
2022/03/03 09:38:02;;;;;;;;;63.00;48.20;;;;;;;;5016090;28;9428;-66
2022/03/03 09:40:29;;;;;;;;;59.00;46.60;;;;;;;;5022637;28;8743;-72
2022/03/03 09:42:56;;;;;;;;;62.00;50.75;;;;;;;;5032447;28;8787;-72
2022/03/03 09:45:26;;;;;;;;;58.00;47.20;;;;;;;;5016596;28;8782;-69
2022/03/03 09:47:54;;;;;;;;;54.40;43.60;;;;;;;;5031520;28;8853;-67
2022/03/03 09:50:20;;;;;;;;;56.20;45.80;;;;;;;;5016444;28;8738;-67
2022/03/03 09:52:47;;;;;;;;;56.20;45.00;;;;;;;;5016447;28;8767;-66
2022/03/03 09:55:14;;;;;;;;;61.80;47.20;;;;;;;;5017095;28;8778;-67
2022/03/03 09:57:40;;;;;;;;;57.00;46.20;;;;;;;;5016080;28;8771;-67
2022/03/03 10:00:08;;;;;;;;;56.75;43.75;;;;;;;;5017639;28;8778;-66
2022/03/03 10:03:14;;;;;;;;;61.20;47.80;;;;;;;;5019831;28;8893;-66
2022/03/03 10:05:50;;;;;;;;;57.40;46.00;;;;;;;;4978623;28;8748;-66
2022/03/03 10:08:20;;;;;;;;;56.75;45.00;;;;;;;;4978635;28;8923;-67
2022/03/03 10:10:47;;;;;;;;;55.40;44.20;;;;;;;;4978741;28;8763;-67
2022/03/03 10:13:16;;;;;;;;;55.40;45.20;;;;;;;;4979277;28;8830;-67
2022/03/03 10:15:44;;;;;;;;;56.40;45.40;;;;;;;;4978511;28;8755;-67
2022/03/03 10:18:14;;;;;;;;;58.80;46.60;;;;;;;;4978497;28;8986;-67
2022/03/03 10:21:13;;;;;;;;;60.00;48.40;;;;;;;;4978578;28;9425;-67
2022/03/03 10:23:40;;;;;;;;;56.80;46.00;;;;;;;;4957599;28;8755;-67
2022/03/03 10:26:07;;;;;;;;;56.25;44.50;;;;;;;;4975268;28;8791;-67
2022/03/03 10:28:35;;;;;;;;;56.40;45.00;;;;;;;;4978066;28;8768;-66
2022/03/03 10:31:05;;;;;;;;;58.40;45.60;;;;;;;;4978937;28;8732;-67
2022/03/03 10:33:42;;;;;;;;;58.60;45.60;;;;;;;;4978324;28;8914;-67
2022/03/03 10:36:15;;;;;;;;;51.25;41.50;;;;;;;;4994885;28;8759;-67
2022/03/03 10:38:54;;;;;;;;;60.00;46.50;;;;;;;;5019499;28;8747;-68
2022/03/03 10:41:47;;;;;;;;;54.25;44.25;;;;;;;;5019178;28;8759;-67
2022/03/03 10:44:14;;;;;;;;;61.00;47.00;;;;;;;;5018646;28;8779;-67
2022/03/03 10:47:00;;;;;;;;;58.60;46.20;;;;;;;;5019368;28;8754;-67
2022/03/03 10:49:26;;;;;;;;;59.40;46.60;;;;;;;;5019266;28;8775;-67
2022/03/03 10:51:53;;;;;;;;;60.80;46.40;;;;;;;;5034910;28;8770;-68
2022/03/03 10:54:20;;;;;;;;;53.00;43.40;;;;;;;;5034109;28;9416;-68
2022/03/03 10:56:47;;;;;;;;;58.20;44.80;;;;;;;;5019196;28;8785;-68
2022/03/03 10:59:24;;;;;;;;;61.00;47.00;;;;;;;;5018894;28;8763;-69
2022/03/03 11:01:51;;;;;;;;;63.80;48.00;;;;;;;;5017759;28;8773;-68
2022/03/03 11:04:18;;;;;;;;;62.80;48.80;;;;;;;;5019297;28;8874;-68
2022/03/03 11:06:47;;;;;;;;;64.00;50.00;;;;;;;;5018750;28;9504;-68
2022/03/03 11:09:14;;;;;;;;;64.80;49.40;;;;;;;;5019061;28;8833;-68
2022/03/03 11:11:41;;;;;;;;;65.00;51.20;;;;;;;;5022308;28;9427;-68
2022/03/03 11:14:08;;;;;;;;;62.20;50.60;;;;;;;;4999473;28;8761;-67
2022/03/03 11:16:35;;;;;;;;;63.60;47.80;;;;;;;;4997688;28;8754;-67
2022/03/03 11:19:01;;;;;;;;;63.60;49.40;;;;;;;;4999692;28;8745;-67
2022/03/03 11:21:28;;;;;;;;;63.00;49.60;;;;;;;;4998718;28;8738;-67
2022/03/03 11:23:58;;;;;;;;;61.60;48.00;;;;;;;;4998918;28;8758;-67
2022/03/03 11:26:26;;;;;;;;;65.80;49.20;;;;;;;;5006962;28;8866;-67
2022/03/03 11:29:03;;;;;;;;;61.40;48.80;;;;;;;;5033634;28;9458;-67
2022/03/03 11:31:31;;;;;;;;;63.80;49.80;;;;;;;;5017976;28;9411;-67
2022/03/03 11:34:16;;;;;;;;;64.20;48.20;;;;;;;;5019090;28;8731;-66
2022/03/03 11:36:44;;;;;;;;;67.00;52.00;;;;;;;;5018409;28;8735;-67
2022/03/03 11:39:11;;;;;;;;;61.60;48.20;;;;;;;;5018504;28;8771;-67
2022/03/03 11:41:48;;;;;;;;;62.80;49.40;;;;;;;;5022765;28;8793;-66
2022/03/03 11:44:15;;;;;;;;;66.00;50.40;;;;;;;;4998573;28;8813;-67
2022/03/03 11:46:51;;;;;;;;;64.60;50.40;;;;;;;;4998040;28;8766;-67
2022/03/03 11:49:21;;;;;;;;;68.80;54.60;;;;;;;;4997961;28;8872;-67
2022/03/03 11:51:51;;;;;;;;;65.80;52.40;;;;;;;;5003819;28;8842;-66
2022/03/03 11:54:24;;;;;;;;;66.40;51.40;;;;;;;;4998420;28;8769;-68
2022/03/03 11:57:11;;;;;;;;;66.80;54.40;;;;;;;;5010469;28;8782;-68
2022/03/03 11:59:50;;;;;;;;;68.80;52.20;;;;;;;;5010940;28;8774;-68
2022/03/03 12:02:19;;;;;;;;;64.00;49.60;;;;;;;;5017912;28;9474;-68
2022/03/03 12:04:46;;;;;;;;;57.75;46.25;;;;;;;;5016529;28;8739;-68
2022/03/03 12:07:28;;;;;;;;;66.20;50.60;;;;;;;;5018367;28;8763;-68
2022/03/03 12:09:58;;;;;;;;;66.20;51.40;;;;;;;;5018224;28;8778;-68
2022/03/03 12:12:25;;;;;;;;;72.00;53.60;;;;;;;;5017603;28;8779;-67
2022/03/03 12:14:58;;;;;;;;;92.20;75.60;;;;;;;;5032431;28;8805;-68
2022/03/03 12:17:47;;;;;;;;;78.40;69.00;;;;;;;;5017293;28;8795;-68
2022/03/03 12:20:34;;;;;;;;;78.60;61.80;;;;;;;;5020071;28;8762;-68
2022/03/03 12:23:05;;;;;;;;;80.80;66.20;;;;;;;;5016483;28;8747;-68
2022/03/03 12:25:50;;;;;;;;;77.40;61.20;;;;;;;;5016215;28;8794;-68
2022/03/03 12:28:17;;;;;;;;;81.80;69.60;;;;;;;;5017841;28;8739;-68
2022/03/03 12:30:44;;;;;;;;;74.00;58.80;;;;;;;;5015938;28;8770;-68
2022/03/03 12:33:21;;;;;;;;;75.40;63.80;;;;;;;;5017522;28;8783;-67
2022/03/03 12:35:49;;;;;;;;;74.60;59.20;;;;;;;;5016094;28;9708;-68
2022/03/03 12:38:16;;;;;;;;;67.80;53.40;;;;;;;;5017310;28;8758;-68
2022/03/03 12:40:43;;;;;;;;;68.40;55.40;;;;;;;;5015900;28;8758;-67
2022/03/03 12:43:19;;;;;;;;;79.40;66.40;;;;;;;;5017683;28;8799;-67
2022/03/03 12:45:46;;;;;;;;;76.00;63.40;;;;;;;;5017234;28;8795;-68
2022/03/03 12:48:13;;;;;;;;;75.60;60.80;;;;;;;;5017656;28;8795;-68
2022/03/03 12:50:40;;;;;;;;;77.00;63.80;;;;;;;;5017390;28;8751;-68
2022/03/03 12:53:07;;;;;;;;;71.60;59.00;;;;;;;;5017351;28;8869;-68
2022/03/03 12:55:37;;;;;;;;;75.80;62.00;;;;;;;;5017240;28;8751;-68
2022/03/03 12:58:08;;;;;;;;;69.80;56.60;;;;;;;;5017840;28;8743;-68
2022/03/03 13:00:36;;;;;;;;;74.60;61.80;;;;;;;;5017288;28;9426;-68
2022/03/03 13:03:06;;;;;;;;;71.40;56.60;;;;;;;;5017451;28;8961;-68
2022/03/03 13:05:46;;;;;;;;;77.00;64.60;;;;;;;;5031519;28;8880;-68
2022/03/03 13:08:25;;;;;;;;;71.40;56.20;;;;;;;;5032190;28;8767;-68
2022/03/03 13:10:53;;;;;;;;;69.40;55.80;;;;;;;;5016973;28;8857;-68
2022/03/03 13:13:19;;;;;;;;;69.80;56.60;;;;;;;;5017389;28;8755;-68
2022/03/03 13:15:46;;;;;;;;;68.40;55.40;;;;;;;;5016816;28;8759;-68
2022/03/03 13:18:16;;;;;;;;;73.80;59.60;;;;;;;;5016802;28;8782;-68
2022/03/03 13:20:56;;;;;;;;;76.20;63.60;;;;;;;;5015459;28;8751;-68
2022/03/03 13:23:26;;;;;;;;;70.60;58.00;;;;;;;;5016931;28;8766;-68
2022/03/03 13:26:12;;;;;;;;;80.00;70.60;;;;;;;;5018706;28;8828;-68
2022/03/03 13:28:41;;;;;;;;;81.80;72.80;;;;;;;;4997228;28;8773;-68
2022/03/03 13:31:08;;;;;;;;;81.00;72.00;;;;;;;;4997887;28;8734;-68
2022/03/03 13:33:44;;;;;;;;;78.20;72.80;;;;;;;;4995943;28;8873;-68
2022/03/03 13:36:14;;;;;;;;;82.20;71.60;;;;;;;;5001024;28;8758;-68
2022/03/03 13:38:41;;;;;;;;;74.80;62.00;;;;;;;;5000793;28;8851;-68
2022/03/03 13:41:41;;;;;;;;;78.80;66.80;;;;;;;;5006896;28;8770;-68
2022/03/03 13:44:12;;;;;;;;;71.20;54.60;;;;;;;;5008889;28;8759;-68
2022/03/03 13:46:39;;;;;;;;;76.20;58.80;;;;;;;;5020476;28;8819;-68
2022/03/03 13:49:06;;;;;;;;;74.20;60.20;;;;;;;;5026980;28;8791;-68
2022/03/03 13:51:33;;;;;;;;;77.60;62.60;;;;;;;;5020355;28;8794;-68
2022/03/03 13:54:03;;;;;;;;;77.60;66.60;;;;;;;;5020480;28;8829;-68
2022/03/03 13:56:30;;;;;;;;;80.00;68.60;;;;;;;;5019898;28;8774;-68
2022/03/03 13:59:09;;;;;;;;;79.00;65.60;;;;;;;;5019978;28;8818;-68
2022/03/03 14:01:37;;;;;;;;;77.20;67.20;;;;;;;;5035286;28;8771;-68
2022/03/03 14:04:13;;;;;;;;;76.20;65.00;;;;;;;;5020671;28;8743;-68
2022/03/03 14:06:43;;;;;;;;;74.00;65.60;;;;;;;;5018146;28;8791;-68
2022/03/03 14:09:10;;;;;;;;;80.40;71.20;;;;;;;;5018413;28;9464;-68
2022/03/03 14:11:39;;;;;;;;;78.20;65.20;;;;;;;;5019566;28;8782;-68
2022/03/03 14:14:05;;;;;;;;;76.80;64.80;;;;;;;;5034665;28;8818;-68
2022/03/03 14:16:35;;;;;;;;;80.80;70.20;;;;;;;;5019287;28;8786;-67
2022/03/03 14:19:01;;;;;;;;;75.80;65.60;;;;;;;;5020349;28;8735;-68
2022/03/03 14:21:28;;;;;;;;;80.80;67.80;;;;;;;;5018340;28;8779;-68
2022/03/03 14:23:55;;;;;;;;;81.60;72.00;;;;;;;;5019914;28;8786;-68
2022/03/03 14:26:22;;;;;;;;;76.00;65.40;;;;;;;;5019056;28;8821;-68
2022/03/03 14:28:50;;;;;;;;;80.40;72.80;;;;;;;;5019466;28;8771;-67
2022/03/03 14:31:16;;;;;;;;;77.80;64.20;;;;;;;;5018613;28;8743;-68
2022/03/03 14:33:43;;;;;;;;;82.20;74.80;;;;;;;;5019348;28;8743;-68
2022/03/03 14:36:11;;;;;;;;;78.20;67.80;;;;;;;;5019593;28;8785;-68